createdAt,value
2022-11-28T00:01:26.459Z,100980.75
2022-11-28T00:03:53.158Z,100980.94
2022-11-28T00:06:20.532Z,100968.97
2022-11-28T00:08:47.883Z,100965.56
2022-11-28T00:11:16.662Z,100971.91
2022-11-28T00:13:43.720Z,100966.63
2022-11-28T00:16:16.211Z,100959.22
2022-11-28T00:18:43.018Z,100962.16
2022-11-28T00:21:12.584Z,100951.19
2022-11-28T00:23:39.989Z,100946.59
2022-11-28T00:26:10.385Z,100945.91
2022-11-28T00:28:37.623Z,100941.03
2022-11-28T00:31:05.016Z,100944.03
2022-11-28T00:33:33.335Z,100949.53
2022-11-28T00:36:01.787Z,100946.13
2022-11-28T00:38:28.961Z,100933.66
2022-11-28T00:41:03.927Z,100926.31
2022-11-28T00:43:30.640Z,100930.06
2022-11-28T00:45:57.573Z,100921.84
2022-11-28T00:48:25.042Z,100920.84
2022-11-28T00:50:52.863Z,100911.56
2022-11-28T00:53:19.533Z,100908.16
2022-11-28T00:55:46.209Z,100914.03
2022-11-28T00:58:12.990Z,100923.78
2022-11-28T01:00:39.718Z,100920.38
2022-11-28T01:03:06.448Z,100914.03
2022-11-28T01:05:33.282Z,100912.16
2022-11-28T01:08:00.040Z,100903.06
2022-11-28T01:10:27.299Z,100908.75
2022-11-28T01:12:54.116Z,100902.25
2022-11-28T01:15:20.752Z,100910.66
2022-11-28T01:17:47.440Z,100898.00
2022-11-28T01:20:14.256Z,100886.00
2022-11-28T01:22:40.929Z,100893.16
2022-11-28T01:25:07.805Z,100894.22
2022-11-28T01:27:34.405Z,100879.88
2022-11-28T01:30:01.030Z,100877.78
2022-11-28T01:32:27.713Z,100885.34
2022-11-28T01:34:54.386Z,100894.63
2022-11-28T01:37:21.000Z,100892.50
2022-11-28T01:39:47.574Z,100880.94
2022-11-28T01:42:19.062Z,100876.88
2022-11-28T01:44:48.349Z,100884.69
2022-11-28T01:47:25.694Z,100884.06
2022-11-28T01:49:54.185Z,100883.66
2022-11-28T01:52:22.097Z,100883.66
2022-11-28T01:54:52.843Z,100885.75
2022-11-28T01:57:22.507Z,100892.91
2022-11-28T02:00:02.098Z,100876.47
2022-11-28T02:02:49.494Z,100880.25
2022-11-28T02:05:17.734Z,100870.56
2022-11-28T02:07:45.351Z,100872.25
2022-11-28T02:10:16.773Z,100865.72
2022-11-28T02:12:52.366Z,100863.84
2022-11-28T02:15:51.147Z,100863.16
2022-11-28T02:18:50.311Z,100862.16
2022-11-28T02:21:25.001Z,100846.09
2022-11-28T02:24:28.684Z,100833.91
2022-11-28T02:27:00.962Z,100835.16
2022-11-28T02:29:51.394Z,100836.84
2022-11-28T02:32:26.807Z,100838.72
2022-11-28T02:35:14.665Z,100836.84
2022-11-28T02:37:59.625Z,100833.44
2022-11-28T02:41:02.154Z,100845.25
2022-11-28T02:43:44.580Z,100848.19
2022-11-28T02:46:20.457Z,100836.38
2022-11-28T02:48:54.393Z,100842.91
2022-11-28T02:51:25.971Z,100844.59
2022-11-28T02:53:54.701Z,100841.03
2022-11-28T02:56:24.602Z,100839.97
2022-11-28T02:58:51.264Z,100846.03
2022-11-28T03:01:38.658Z,100844.78
2022-11-28T03:04:18.091Z,100835.94
2022-11-28T03:07:04.101Z,100833.00
2022-11-28T03:09:30.618Z,100835.94
2022-11-28T03:12:12.347Z,100829.63
2022-11-28T03:14:45.147Z,100824.34
2022-11-28T03:17:34.906Z,100825.00
2022-11-28T03:20:12.225Z,100827.72
2022-11-28T03:22:49.053Z,100824.34
2022-11-28T03:25:15.517Z,100828.94
2022-11-28T03:27:54.896Z,100824.34
2022-11-28T03:30:28.504Z,100819.91
2022-11-28T03:32:58.006Z,100819.44
2022-11-28T03:35:29.174Z,100822.00
2022-11-28T03:38:02.182Z,100814.84
2022-11-28T03:40:36.092Z,100817.75
2022-11-28T03:43:11.769Z,100821.59
2022-11-28T03:45:45.027Z,100826.59
2022-11-28T03:48:23.896Z,100822.84
2022-11-28T03:50:59.645Z,100815.84
2022-11-28T03:53:47.990Z,100821.13
2022-11-28T03:56:40.525Z,100813.78
2022-11-28T03:59:18.835Z,100806.16
2022-11-28T04:02:18.111Z,100817.75
2022-11-28T04:04:53.697Z,100813.13
2022-11-28T04:07:36.866Z,100816.91
2022-11-28T04:10:14.388Z,100822.38
2022-11-28T04:13:07.846Z,100822.38
2022-11-28T04:15:59.602Z,100827.19
2022-11-28T04:18:59.928Z,100831.66
2022-11-28T04:21:35.787Z,100828.06
2022-11-28T04:24:17.892Z,100839.22
2022-11-28T04:26:51.986Z,100831.66
2022-11-28T04:29:22.865Z,100829.94
2022-11-28T04:31:53.885Z,100837.13
2022-11-28T04:34:23.014Z,100839.00
2022-11-28T04:36:51.162Z,100838.34
2022-11-28T04:39:26.057Z,100843.63
2022-11-28T04:42:05.288Z,100843.19
2022-11-28T04:45:07.010Z,100847.41
2022-11-28T04:47:33.670Z,100843.00
2022-11-28T04:50:00.519Z,100834.97
2022-11-28T04:52:38.899Z,100845.53
2022-11-28T04:55:35.881Z,100843.63
2022-11-28T04:58:14.895Z,100835.81
2022-11-28T05:00:43.869Z,100840.66
2022-11-28T05:03:11.161Z,100839.59
2022-11-28T05:05:49.754Z,100845.94
2022-11-28T05:08:18.202Z,100843.41
2022-11-28T05:10:44.935Z,100858.75
2022-11-28T05:13:11.509Z,100853.47
2022-11-28T05:15:38.455Z,100846.31
2022-11-28T05:18:05.287Z,100850.56
2022-11-28T05:20:32.262Z,100856.03
2022-11-28T05:22:58.915Z,100847.16
2022-11-28T05:25:25.635Z,100852.63
2022-11-28T05:27:52.290Z,100858.09
2022-11-28T05:30:18.966Z,100863.56
2022-11-28T05:32:45.615Z,100865.28
2022-11-28T05:35:12.263Z,100864.25
2022-11-28T05:37:39.297Z,100873.31
2022-11-28T05:40:06.632Z,100872.84
2022-11-28T05:42:34.652Z,100884.47
2022-11-28T05:45:01.738Z,100877.06
2022-11-28T05:47:31.870Z,100877.94
2022-11-28T05:49:58.663Z,100872.47
2022-11-28T05:52:25.547Z,100890.19
2022-11-28T05:54:52.197Z,100889.34
2022-11-28T05:57:18.815Z,100898.00
2022-11-28T05:59:45.520Z,100897.81
2022-11-28T06:02:12.753Z,100892.13
2022-11-28T06:04:42.040Z,100901.66
2022-11-28T06:07:08.879Z,100904.41
2022-11-28T06:09:35.476Z,100906.75
2022-11-28T06:12:02.110Z,100906.75
2022-11-28T06:14:28.860Z,100906.38
2022-11-28T06:16:55.712Z,100916.06
2022-11-28T06:19:22.378Z,100915.88
2022-11-28T06:21:52.011Z,100908.50
2022-11-28T06:24:18.750Z,100901.13
2022-11-28T06:26:45.426Z,100895.44
2022-11-28T06:29:12.078Z,100903.06
2022-11-28T06:31:38.736Z,100901.38
2022-11-28T06:34:05.386Z,100905.63
2022-11-28T06:36:32.088Z,100904.78
2022-11-28T06:38:58.695Z,100903.53
2022-11-28T06:41:25.451Z,100902.47
2022-11-28T06:43:52.169Z,100913.03
2022-11-28T06:46:20.967Z,100913.72
2022-11-28T06:48:49.871Z,100917.94
2022-11-28T06:51:17.930Z,100918.59
2022-11-28T06:53:44.898Z,100920.06
2022-11-28T06:56:14.582Z,100912.53
2022-11-28T06:58:41.891Z,100916.94
2022-11-28T07:01:22.074Z,100931.09
2022-11-28T07:03:49.401Z,100923.94
2022-11-28T07:06:18.630Z,100932.59
2022-11-28T07:08:46.492Z,100925.22
2022-11-28T07:11:22.118Z,100924.84
2022-11-28T07:13:49.729Z,100924.84
2022-11-28T07:16:20.109Z,100934.53
2022-11-28T07:18:47.030Z,100934.34
2022-11-28T07:21:15.100Z,100937.75
2022-11-28T07:23:43.395Z,100936.06
2022-11-28T07:26:12.346Z,100937.34
2022-11-28T07:28:39.025Z,100933.75
2022-11-28T07:31:10.771Z,100938.84
2022-11-28T07:33:38.882Z,100941.78
2022-11-28T07:36:08.489Z,100951.31
2022-11-28T07:38:35.165Z,100957.63
2022-11-28T07:41:06.296Z,100958.47
2022-11-28T07:43:33.365Z,100971.13
2022-11-28T07:46:02.947Z,100979.19
2022-11-28T07:48:29.642Z,100973.88
2022-11-28T07:50:56.409Z,100968.03
2022-11-28T07:53:23.067Z,100978.78
2022-11-28T07:55:49.600Z,100971.44
2022-11-28T07:58:16.500Z,100974.44
2022-11-28T08:00:43.204Z,100981.59
2022-11-28T08:03:10.205Z,100979.91
2022-11-28T08:05:37.237Z,100970.63
2022-11-28T08:08:04.466Z,100974.44
2022-11-28T08:10:31.235Z,100971.03
2022-11-28T08:12:57.885Z,100971.03
2022-11-28T08:15:24.405Z,100974.44
2022-11-28T08:17:50.921Z,100979.91
2022-11-28T08:20:18.476Z,100985.00
2022-11-28T08:22:45.200Z,100983.94
2022-11-28T08:25:11.782Z,100986.28
2022-11-28T08:27:38.439Z,100993.44
2022-11-28T08:30:05.940Z,100990.50
2022-11-28T08:32:32.481Z,100999.59
2022-11-28T08:34:59.031Z,100993.06
2022-11-28T08:37:26.560Z,100991.16
2022-11-28T08:39:53.066Z,100990.13
2022-11-28T08:42:19.673Z,100992.84
2022-11-28T08:44:46.208Z,100994.75
2022-11-28T08:47:13.335Z,101001.78
2022-11-28T08:49:39.937Z,100994.59
2022-11-28T08:52:07.105Z,100996.69
2022-11-28T08:54:33.723Z,100980.44
2022-11-28T08:57:01.440Z,100989.97
2022-11-28T08:59:28.267Z,100985.78
2022-11-28T09:01:55.483Z,100987.25
2022-11-28T09:04:23.788Z,100993.19
2022-11-28T09:06:50.973Z,100998.09
2022-11-28T09:09:17.599Z,100994.53
2022-11-28T09:11:44.756Z,101005.78
2022-11-28T09:14:11.732Z,101007.19
2022-11-28T09:16:39.773Z,101005.59
2022-11-28T09:19:09.220Z,101003.50
2022-11-28T09:21:36.343Z,101003.75
2022-11-28T09:24:03.648Z,101014.53
2022-11-28T09:26:30.402Z,101016.66
2022-11-28T09:28:57.030Z,101009.06
2022-11-28T09:31:23.758Z,101011.25
2022-11-28T09:33:50.521Z,101010.41
2022-11-28T09:36:19.712Z,101009.16
2022-11-28T09:38:47.016Z,101016.25
2022-11-28T09:41:42.410Z,101012.97
2022-11-28T09:44:18.502Z,101013.63
2022-11-28T09:46:48.221Z,101013.63
2022-11-28T09:49:43.056Z,101020.84
2022-11-28T09:52:58.107Z,101014.28
2022-11-28T09:55:49.719Z,101017.88
2022-11-28T09:58:19.494Z,101015.22
2022-11-28T10:01:13.646Z,101020.22
2022-11-28T10:03:58.179Z,101022.94
2022-11-28T10:07:04.397Z,101020.13
2022-11-28T10:09:30.995Z,101021.41
2022-11-28T10:12:07.187Z,101022.47
2022-11-28T10:14:36.698Z,101028.59
2022-11-28T10:17:36.812Z,101027.56
2022-11-28T10:20:10.174Z,101028.59
2022-11-28T10:22:44.435Z,101023.50
2022-11-28T10:25:41.018Z,101031.97
2022-11-28T10:28:17.829Z,101026.03
2022-11-28T10:30:51.332Z,101037.47
2022-11-28T10:33:36.749Z,101034.06
2022-11-28T10:36:04.073Z,101044.84
2022-11-28T10:38:34.751Z,101044.84
2022-11-28T10:41:20.720Z,101044.03
2022-11-28T10:44:18.370Z,101038.34
2022-11-28T10:47:01.974Z,101037.88
2022-11-28T10:50:04.753Z,101040.41
2022-11-28T10:52:44.715Z,101041.28
2022-11-28T10:55:51.872Z,101049.72
2022-11-28T10:58:31.735Z,101047.66
2022-11-28T11:01:00.422Z,101049.72
2022-11-28T11:03:31.212Z,101050.59
2022-11-28T11:05:58.038Z,101064.13
2022-11-28T11:08:27.014Z,101064.13
2022-11-28T11:11:07.310Z,101060.31
2022-11-28T11:13:53.526Z,101060.31
2022-11-28T11:16:20.145Z,101054.81
2022-11-28T11:18:47.229Z,101057.38
2022-11-28T11:21:19.221Z,101062.66
2022-11-28T11:23:47.194Z,101051.66
2022-11-28T11:26:24.893Z,101050.63
2022-11-28T11:28:52.211Z,101047.03
2022-11-28T11:31:21.432Z,101057.81
2022-11-28T11:33:51.458Z,101056.75
2022-11-28T11:36:25.096Z,101062.91
2022-11-28T11:38:52.631Z,101064.63
2022-11-28T11:41:40.910Z,101059.13
2022-11-28T11:44:13.395Z,101059.13
2022-11-28T11:47:01.877Z,101070.09
2022-11-28T11:49:31.331Z,101066.72
2022-11-28T11:52:01.067Z,101068.41
2022-11-28T11:54:28.137Z,101059.50
2022-11-28T11:57:25.070Z,101071.81
2022-11-28T11:59:53.142Z,101059.13
2022-11-28T12:02:26.186Z,101066.13
2022-11-28T12:05:11.503Z,101059.56
2022-11-28T12:07:58.598Z,101062.13
2022-11-28T12:10:29.944Z,101061.06
2022-11-28T12:12:56.991Z,101051.13
2022-11-28T12:15:40.401Z,101064.00
2022-11-28T12:18:42.473Z,101062.13
2022-11-28T12:21:14.118Z,101068.03
2022-11-28T12:23:40.572Z,101064.63
2022-11-28T12:26:25.908Z,101068.22
2022-11-28T12:29:17.063Z,101073.50
2022-11-28T12:31:55.496Z,101075.19
2022-11-28T12:34:29.637Z,101084.50
2022-11-28T12:37:16.632Z,101076.88
2022-11-28T12:40:10.606Z,101078.16
2022-11-28T12:42:52.454Z,101079.88
2022-11-28T12:45:36.717Z,101081.09
2022-11-28T12:48:09.615Z,101081.75
2022-11-28T12:50:46.501Z,101084.09
2022-11-28T12:53:37.948Z,101080.28
2022-11-28T12:56:15.284Z,101076.47
2022-11-28T12:58:57.120Z,101078.59
2022-11-28T13:01:35.781Z,101081.97
2022-11-28T13:04:33.163Z,101089.19
2022-11-28T13:07:05.971Z,101078.19
2022-11-28T13:09:42.827Z,101083.47
2022-11-28T13:12:27.996Z,101080.72
2022-11-28T13:14:56.905Z,101083.28
2022-11-28T13:17:42.824Z,101087.06
2022-11-28T13:20:36.874Z,101087.06
2022-11-28T13:23:11.497Z,101087.06
2022-11-28T13:25:51.588Z,101091.94
2022-11-28T13:28:26.455Z,101094.25
2022-11-28T13:31:04.442Z,101095.69
2022-11-28T13:33:51.158Z,101100.78
2022-11-28T13:39:40.178Z,101103.94
2022-11-28T13:42:52.348Z,101111.56
2022-11-28T13:45:09.318Z,101115.34
2022-11-28T13:47:37.222Z,101120.81
2022-11-28T13:50:25.312Z,101117.06
2022-11-28T13:53:07.239Z,101120.81
2022-11-28T13:55:48.460Z,101114.31
2022-11-28T13:58:17.034Z,101117.69
2022-11-28T14:01:18.092Z,101117.94
2022-11-28T14:03:52.327Z,101121.34
2022-11-28T14:06:22.547Z,101116.25
2022-11-28T14:09:02.887Z,101114.53
2022-11-28T14:12:08.539Z,101120.41
2022-11-28T14:15:12.679Z,101111.75
2022-11-28T14:17:59.567Z,101118.72
2022-11-28T14:20:51.543Z,101121.25
2022-11-28T14:23:43.945Z,101127.97
2022-11-28T14:26:38.036Z,101140.88
2022-11-28T14:29:08.493Z,101139.34
2022-11-28T14:31:39.122Z,101138.53
2022-11-28T14:34:30.956Z,101140.59
2022-11-28T14:37:19.465Z,101143.75
2022-11-28T14:39:48.705Z,101141.22
2022-11-28T14:42:36.775Z,101152.00
2022-11-28T14:45:23.982Z,101164.66
2022-11-28T14:48:18.630Z,101155.59
2022-11-28T14:50:54.577Z,101162.13
2022-11-28T14:53:44.825Z,101140.94
2022-11-28T14:56:15.110Z,101170.91
2022-11-28T14:58:50.082Z,101163.66
2022-11-28T15:01:32.940Z,101167.25
2022-11-28T15:04:22.074Z,101166.41
2022-11-28T15:06:50.369Z,101178.66
2022-11-28T15:09:20.157Z,101178.41
2022-11-28T15:12:00.539Z,101182.84
2022-11-28T15:14:31.617Z,101179.44
2022-11-28T15:17:03.501Z,101187.69
2022-11-28T15:19:34.734Z,101184.94
2022-11-28T15:22:01.675Z,101181.53
2022-11-28T15:24:34.478Z,101182.59
2022-11-28T15:27:07.334Z,101181.94
2022-11-28T15:29:35.897Z,101181.31
2022-11-28T15:32:03.753Z,101195.66
2022-11-28T15:34:33.547Z,101198.41
2022-11-28T15:37:06.335Z,101198.00
2022-11-28T15:39:41.800Z,101206.03
2022-11-28T15:42:28.887Z,101203.09
2022-11-28T15:45:14.844Z,101205.63
2022-11-28T15:47:41.615Z,101207.31
2022-11-28T15:50:11.553Z,101207.97
2022-11-28T15:52:38.329Z,101216.00
2022-11-28T15:55:16.521Z,101224.06
2022-11-28T15:57:43.321Z,101229.53
2022-11-28T16:00:14.793Z,101226.81
2022-11-28T16:02:44.255Z,101221.31
2022-11-28T16:05:16.469Z,101236.94
2022-11-28T16:07:44.309Z,101228.50
2022-11-28T16:10:36.977Z,101233.59
2022-11-28T16:13:11.260Z,101228.50
2022-11-28T16:15:38.525Z,101234.63
2022-11-28T16:18:07.167Z,101238.22
2022-11-28T16:20:35.689Z,101240.41
2022-11-28T16:23:09.609Z,101241.81
2022-11-28T16:25:36.972Z,101240.56
2022-11-28T16:28:03.894Z,101250.56
2022-11-28T16:30:41.908Z,101251.38
2022-11-28T16:33:38.041Z,101257.72
2022-11-28T16:36:12.582Z,101266.13
2022-11-28T16:38:39.747Z,101254.50
2022-11-28T16:41:06.506Z,101252.16
2022-11-28T16:43:39.378Z,101255.56
2022-11-28T16:46:16.299Z,101263.13
2022-11-28T16:48:57.869Z,101259.34
2022-11-28T16:51:36.552Z,101260.84
2022-11-28T16:54:30.072Z,101257.25
2022-11-28T16:57:08.916Z,101261.72
2022-11-28T16:59:35.557Z,101262.72
2022-11-28T17:02:02.334Z,101258.97
2022-11-28T17:04:31.037Z,101264.44
2022-11-28T17:07:05.166Z,101256.41
2022-11-28T17:09:33.922Z,101267.84
2022-11-28T17:12:07.543Z,101271.28
2022-11-28T17:14:34.765Z,101273.16
2022-11-28T17:17:01.292Z,101279.72
2022-11-28T17:19:30.963Z,101286.88
2022-11-28T17:21:59.575Z,101285.88
2022-11-28T17:24:34.514Z,101286.88
2022-11-28T17:27:02.908Z,101292.38
2022-11-28T17:29:29.619Z,101291.13
2022-11-28T17:31:58.845Z,101292.84
2022-11-28T17:34:28.286Z,101289.00
2022-11-28T17:36:55.133Z,101294.50
2022-11-28T17:39:22.116Z,101290.84
2022-11-28T17:41:49.502Z,101294.66
2022-11-28T17:44:31.512Z,101298.25
2022-11-28T17:47:00.819Z,101292.75
2022-11-28T17:49:29.019Z,101291.91
2022-11-28T17:51:56.700Z,101296.34
2022-11-28T17:54:25.329Z,101298.75
2022-11-28T17:56:53.177Z,101306.78
2022-11-28T17:59:22.905Z,101301.47
2022-11-28T18:01:49.970Z,101303.84
2022-11-28T18:04:23.183Z,101307.59
2022-11-28T18:06:49.927Z,101311.00
2022-11-28T18:09:16.641Z,101316.72
2022-11-28T18:11:46.389Z,101313.34
2022-11-28T18:14:14.157Z,101320.72
2022-11-28T18:16:43.897Z,101317.28
2022-11-28T18:19:10.977Z,101318.16
2022-11-28T18:21:38.935Z,101318.16
2022-11-28T18:24:05.864Z,101313.72
2022-11-28T18:26:32.607Z,101320.03
2022-11-28T18:28:59.298Z,101318.81
2022-11-28T18:31:28.642Z,101326.84
2022-11-28T18:34:00.394Z,101338.47
2022-11-28T18:36:30.190Z,101339.53
2022-11-28T18:38:59.189Z,101338.69
2022-11-28T18:41:26.465Z,101342.69
2022-11-28T18:44:00.714Z,101341.00
2022-11-28T18:46:28.899Z,101341.00
2022-11-28T18:48:55.721Z,101350.25
2022-11-28T18:51:34.645Z,101347.50
2022-11-28T18:54:02.431Z,101349.44
2022-11-28T18:56:30.294Z,101342.03
2022-11-28T18:58:58.042Z,101348.53
2022-11-28T19:01:30.761Z,101359.53
2022-11-28T19:03:58.964Z,101363.31
2022-11-28T19:06:26.303Z,101366.28
2022-11-28T19:08:55.943Z,101365.41
2022-11-28T19:11:23.227Z,101367.28
2022-11-28T19:13:53.382Z,101366.47
2022-11-28T19:16:28.676Z,101362.66
2022-11-28T19:18:55.670Z,101357.16
2022-11-28T19:21:25.865Z,101365.41
2022-11-28T19:23:54.757Z,101361.59
2022-11-28T19:26:23.584Z,101365.00
2022-11-28T19:28:50.594Z,101368.66
2022-11-28T19:31:22.572Z,101367.59
2022-11-28T19:34:26.158Z,101370.16
2022-11-28T19:36:54.365Z,101371.56
2022-11-28T19:39:24.362Z,101373.97
2022-11-28T19:41:53.143Z,101378.38
2022-11-28T19:44:24.786Z,101377.72
2022-11-28T19:46:53.529Z,101381.50
2022-11-28T19:49:22.658Z,101385.31
2022-11-28T19:51:50.257Z,101390.13
2022-11-28T19:54:19.839Z,101393.72
2022-11-28T19:56:47.853Z,101387.00
2022-11-28T19:59:14.730Z,101387.88
2022-11-28T20:01:42.699Z,101381.50
2022-11-28T20:04:09.826Z,101377.44
2022-11-28T20:06:38.234Z,101383.56
2022-11-28T20:09:08.566Z,101383.56
2022-11-28T20:11:39.959Z,101383.97
2022-11-28T20:14:12.195Z,101391.19
2022-11-28T20:16:40.147Z,101393.94
2022-11-28T20:19:07.515Z,101387.78
2022-11-28T20:21:36.410Z,101389.94
2022-11-28T20:24:07.347Z,101393.53
2022-11-28T20:26:41.239Z,101396.94
2022-11-28T20:29:11.952Z,101397.97
2022-11-28T20:31:45.635Z,101396.94
2022-11-28T20:34:16.144Z,101397.97
2022-11-28T20:36:44.063Z,101402.25
2022-11-28T20:39:12.204Z,101406.06
2022-11-28T20:41:38.977Z,101414.09
2022-11-28T20:44:05.787Z,101418.72
2022-11-28T20:46:34.025Z,101422.53
2022-11-28T20:49:03.680Z,101417.19
2022-11-28T20:51:32.517Z,101416.53
2022-11-28T20:54:00.756Z,101419.09
2022-11-28T20:56:30.491Z,101423.75
2022-11-28T20:59:02.102Z,101425.44
2022-11-28T21:01:35.383Z,101425.28
2022-11-28T21:04:04.128Z,101434.38
2022-11-28T21:06:31.240Z,101435.03
2022-11-28T21:08:57.938Z,101441.56
2022-11-28T21:11:50.571Z,101433.53
2022-11-28T21:14:14.172Z,101448.75
2022-11-28T21:16:41.882Z,101450.88
2022-11-28T21:19:09.461Z,101453.81
2022-11-28T21:21:38.266Z,101460.13
2022-11-28T21:24:10.771Z,101452.91
2022-11-28T21:26:41.683Z,101444.00
2022-11-28T21:29:11.391Z,101449.31
2022-11-28T21:31:41.954Z,101450.00
2022-11-28T21:34:14.249Z,101450.16
2022-11-28T21:36:41.414Z,101450.00
2022-11-28T21:39:11.603Z,101458.03
2022-11-28T21:41:38.147Z,101458.41
2022-11-28T21:44:04.842Z,101461.16
2022-11-28T21:46:31.422Z,101465.97
2022-11-28T21:48:58.452Z,101461.53
2022-11-28T21:51:26.017Z,101458.31
2022-11-28T21:53:57.774Z,101465.72
2022-11-28T21:56:25.580Z,101470.16
2022-11-28T21:58:53.990Z,101469.69
2022-11-28T22:03:32.234Z,101468.84
2022-11-28T22:04:09.822Z,101465.25
2022-11-28T22:06:36.458Z,101479.84
2022-11-28T22:09:09.175Z,101480.22
2022-11-28T22:11:37.300Z,101480.22
2022-11-28T22:14:03.998Z,101479.38
2022-11-28T22:16:31.119Z,101484.00
2022-11-28T22:19:00.219Z,101487.81
2022-11-28T22:24:14.088Z,101491.97
2022-11-28T22:26:41.197Z,101487.31
2022-11-28T22:29:07.799Z,101492.81
2022-11-28T22:31:35.090Z,101490.25
2022-11-28T22:34:02.006Z,101481.38
2022-11-28T22:36:28.593Z,101492.38
2022-11-28T22:38:57.758Z,101497.84
2022-11-28T22:41:29.170Z,101493.38
2022-11-28T22:44:02.020Z,101491.69
2022-11-28T22:46:31.313Z,101489.13
2022-11-28T22:49:00.491Z,101493.13
2022-11-28T22:51:29.378Z,101492.75
2022-11-28T22:53:58.421Z,101494.81
2022-11-28T22:56:27.539Z,101486.97
2022-11-28T22:58:54.388Z,101493.97
2022-11-28T23:01:24.322Z,101491.41
2022-11-28T23:03:51.913Z,101497.94
2022-11-28T23:06:24.154Z,101496.91
2022-11-28T23:08:55.058Z,101493.50
2022-11-28T23:11:25.268Z,101493.50
2022-11-28T23:13:53.257Z,101497.47
2022-11-28T23:16:35.495Z,101509.50
2022-11-28T23:19:06.123Z,101510.38
2022-11-28T23:21:36.207Z,101512.06
2022-11-28T23:24:04.513Z,101509.03
2022-11-28T23:26:32.503Z,101516.25
2022-11-28T23:29:01.614Z,101516.25
2022-11-28T23:31:30.735Z,101521.72
2022-11-28T23:34:00.051Z,101526.94
2022-11-28T23:36:30.360Z,101518.31
2022-11-28T23:39:00.876Z,101515.94
2022-11-28T23:41:29.459Z,101516.63
2022-11-28T23:43:56.932Z,101517.63
2022-11-28T23:46:25.881Z,101527.78
2022-11-28T23:48:53.056Z,101527.97
2022-11-28T23:51:21.785Z,101515.28
2022-11-28T23:53:49.953Z,101514.63
2022-11-28T23:56:25.202Z,101526.63
2022-11-28T23:58:53.075Z,101526.63
